Time,TemperatureF,DewpointF,PressureIn,WindDirection,WindDirectionDegrees,WindSpeedMPH,WindSpeedGustMPH,Humidity,HourlyPrecipIn,Conditions,Clouds,dailyrainin,SoftwareType,DateUTC
2013-01-28 00:00:00,27.3,24.8,30.07,SE,125,9.0,11.0,90,0.00,,,0.00,VWS V14.01,2013-01-28 05:00:00,
2013-01-28 00:01:00,27.3,24.8,30.07,SSE,148,9.0,9.0,90,0.00,,,0.00,VWS V14.01,2013-01-28 05:01:00,
2013-01-28 00:02:00,27.3,24.8,30.07,SSE,168,6.0,10.0,90,0.00,,,0.00,VWS V14.01,2013-01-28 05:02:00,
2013-01-28 00:07:00,27.3,25.0,30.06,ESE,119,7.0,7.0,91,0.00,,,0.00,VWS V14.01,2013-01-28 05:07:00,
2013-01-28 00:12:00,27.3,25.0,30.06,SSE,164,9.0,9.0,91,0.00,,,0.00,VWS V14.01,2013-01-28 05:12:00,
2013-01-28 00:17:00,27.3,25.0,30.05,SE,134,5.0,8.0,91,0.00,,,0.00,VWS V14.01,2013-01-28 05:17:00,
2013-01-28 00:22:00,27.2,24.9,30.05,ESE,118,10.0,10.0,91,0.00,,,0.00,VWS V14.01,2013-01-28 05:22:00,
2013-01-28 00:27:00,27.1,24.8,30.05,ESE,118,8.0,10.0,91,0.00,,,0.00,VWS V14.01,2013-01-28 05:27:00,
2013-01-28 00:32:00,27.0,24.7,30.05,ESE,121,7.0,10.0,91,0.00,,,0.00,VWS V14.01,2013-01-28 05:32:00,
2013-01-28 00:37:00,26.9,24.6,30.05,SE,130,7.0,8.0,91,0.00,,,0.00,VWS V14.01,2013-01-28 05:37:00,
2013-01-28 00:42:00,26.9,24.6,30.05,ESE,117,5.0,7.0,91,0.00,,,0.00,VWS V14.01,2013-01-28 05:42:00,
2013-01-28 00:47:00,26.8,24.8,30.04,ESE,121,10.0,11.0,92,0.00,,,0.00,VWS V14.01,2013-01-28 05:47:00,
2013-01-28 00:52:00,26.7,24.7,30.04,ESE,107,7.0,9.0,92,0.00,,,0.00,VWS V14.01,2013-01-28 05:52:00,
2013-01-28 00:57:00,26.8,24.8,30.04,SSE,158,4.0,9.0,92,0.00,,,0.00,VWS V14.01,2013-01-28 05:57:00,
2013-01-28 01:02:00,26.7,24.7,30.04,ESE,115,8.0,9.0,92,0.00,,,0.00,VWS V14.01,2013-01-28 06:02:00,
2013-01-28 01:07:00,26.7,24.7,30.04,ESE,121,5.0,10.0,92,0.00,,,0.00,VWS V14.01,2013-01-28 06:07:00,
2013-01-28 01:12:00,26.6,24.6,30.03,SE,132,7.0,8.0,92,0.00,,,0.00,VWS V14.01,2013-01-28 06:12:00,
2013-01-28 01:17:00,26.6,24.6,30.03,ESE,111,3.0,5.0,92,0.00,,,0.00,VWS V14.01,2013-01-28 06:17:00,
2013-01-28 01:22:00,26.6,24.6,30.03,SE,130,3.0,4.0,92,0.00,,,0.00,VWS V14.01,2013-01-28 06:22:00,
2013-01-28 01:28:00,26.5,24.5,30.02,SE,125,5.0,8.0,92,0.00,,,0.00,VWS V14.01,2013-01-28 06:28:00,
2013-01-28 01:33:00,26.5,24.5,30.02,SE,124,5.0,7.0,92,0.00,,,0.00,VWS V14.01,2013-01-28 06:33:00,
2013-01-28 01:38:00,26.4,24.4,30.02,ESE,123,7.0,8.0,92,0.00,,,0.00,VWS V14.01,2013-01-28 06:38:00,
2013-01-28 01:43:00,26.4,24.4,30.02,ESE,119,9.0,10.0,92,0.00,,,0.00,VWS V14.01,2013-01-28 06:43:00,
2013-01-28 01:48:00,26.3,24.3,30.01,SE,128,6.0,8.0,92,0.00,,,0.00,VWS V14.01,2013-01-28 06:48:00,
2013-01-28 01:53:00,26.3,24.3,30.01,ESE,117,5.0,10.0,92,0.00,,,0.00,VWS V14.01,2013-01-28 06:53:00,
2013-01-28 01:58:00,26.3,24.3,30.00,SE,125,8.0,10.0,92,0.00,,,0.00,VWS V14.01,2013-01-28 06:58:00,
2013-01-28 02:03:00,26.3,24.3,30.00,SE,127,4.0,9.0,92,0.00,,,0.00,VWS V14.01,2013-01-28 07:03:00,
2013-01-28 02:08:00,26.3,24.3,29.99,ESE,113,11.0,14.0,92,0.00,,,0.00,VWS V14.01,2013-01-28 07:08:00,
2013-01-28 02:13:00,26.3,24.3,30.00,ESE,118,5.0,8.0,92,0.00,,,0.00,VWS V14.01,2013-01-28 07:13:00,
2013-01-28 02:18:00,26.3,24.0,29.99,ESE,121,10.0,12.0,91,0.00,,,0.00,VWS V14.01,2013-01-28 07:18:00,
2013-01-28 02:23:00,26.3,24.0,29.99,ESE,119,7.0,8.0,91,0.00,,,0.00,VWS V14.01,2013-01-28 07:23:00,
2013-01-28 02:28:00,26.3,24.0,29.99,SE,131,4.0,5.0,91,0.00,,,0.00,VWS V14.01,2013-01-28 07:28:00,
2013-01-28 02:33:00,26.2,23.9,29.99,ESE,120,5.0,8.0,91,0.00,,,0.00,VWS V14.01,2013-01-28 07:33:00,
2013-01-28 02:38:00,26.2,24.2,29.98,SE,124,4.0,10.0,92,0.00,,,0.00,VWS V14.01,2013-01-28 07:38:00,
2013-01-28 02:43:00,26.2,24.2,29.98,SE,125,5.0,9.0,92,0.00,,,0.00,VWS V14.01,2013-01-28 07:43:00,
2013-01-28 02:48:00,26.2,24.2,29.98,SE,141,7.0,7.0,92,0.00,,,0.00,VWS V14.01,2013-01-28 07:48:00,
2013-01-28 02:53:00,26.2,24.2,29.98,SE,135,6.0,10.0,92,0.00,,,0.00,VWS V14.01,2013-01-28 07:53:00,
2013-01-28 02:58:00,26.2,24.2,29.97,SE,124,8.0,13.0,92,0.00,,,0.00,VWS V14.01,2013-01-28 07:58:00,
2013-01-28 03:03:00,26.2,24.2,29.98,ESE,118,4.0,6.0,92,0.00,,,0.00,VWS V14.01,2013-01-28 08:03:00,
2013-01-28 03:08:00,26.2,24.2,29.98,SE,136,5.0,7.0,92,0.00,,,0.00,VWS V14.01,2013-01-28 08:08:00,
2013-01-28 03:13:00,26.1,24.1,29.97,ESE,121,10.0,10.0,92,0.00,,,0.00,VWS V14.01,2013-01-28 08:13:00,
2013-01-28 03:18:00,26.2,24.2,29.97,SE,124,4.0,6.0,92,0.00,,,0.00,VWS V14.01,2013-01-28 08:18:00,
2013-01-28 03:23:00,26.1,24.1,29.97,SE,139,6.0,9.0,92,0.00,,,0.00,VWS V14.01,2013-01-28 08:23:00,
2013-01-28 03:28:00,26.1,24.1,29.97,ESE,119,4.0,7.0,92,0.00,,,0.00,VWS V14.01,2013-01-28 08:28:00,
2013-01-28 03:33:00,26.1,24.1,29.96,SSE,166,4.0,5.0,92,0.00,,,0.00,VWS V14.01,2013-01-28 08:33:00,
2013-01-28 03:38:00,26.1,24.1,29.96,SE,127,8.0,9.0,92,0.00,,,0.00,VWS V14.01,2013-01-28 08:38:00,
2013-01-28 03:43:00,26.1,24.1,29.96,SE,129,5.0,6.0,92,0.00,,,0.00,VWS V14.01,2013-01-28 08:43:00,
2013-01-28 03:48:00,26.1,24.1,29.95,SE,128,4.0,9.0,92,0.00,,,0.00,VWS V14.01,2013-01-28 08:48:00,
2013-01-28 03:53:00,26.1,24.1,29.95,SE,135,6.0,7.0,92,0.00,,,0.00,VWS V14.01,2013-01-28 08:53:00,
2013-01-28 03:58:00,26.1,24.1,29.94,ESE,110,7.0,8.0,92,0.00,,,0.00,VWS V14.01,2013-01-28 08:58:00,
2013-01-28 04:03:00,26.1,24.1,29.94,SE,129,5.0,8.0,92,0.00,,,0.00,VWS V14.01,2013-01-28 09:03:00,
2013-01-28 04:08:00,26.2,24.2,29.94,SE,134,7.0,8.0,92,0.00,,,0.00,VWS V14.01,2013-01-28 09:08:00,
2013-01-28 04:13:00,26.2,24.2,29.93,ESE,121,5.0,9.0,92,0.00,,,0.00,VWS V14.01,2013-01-28 09:13:00,
2013-01-28 04:18:00,26.3,24.3,29.93,SE,136,4.0,8.0,92,0.00,,,0.00,VWS V14.01,2013-01-28 09:18:00,
2013-01-28 04:23:00,26.3,24.3,29.93,SE,124,12.0,12.0,92,0.00,,,0.00,VWS V14.01,2013-01-28 09:23:00,
2013-01-28 04:28:00,26.3,24.3,29.92,ESE,119,4.0,9.0,92,0.00,,,0.00,VWS V14.01,2013-01-28 09:28:00,
2013-01-28 04:33:00,26.3,24.3,29.93,ESE,115,5.0,5.0,92,0.00,,,0.00,VWS V14.01,2013-01-28 09:33:00,
2013-01-28 04:38:00,26.4,24.4,29.93,SE,124,5.0,6.0,92,0.00,,,0.00,VWS V14.01,2013-01-28 09:38:00,
2013-01-28 04:43:00,26.4,24.4,29.92,SE,134,5.0,6.0,92,0.00,,,0.00,VWS V14.01,2013-01-28 09:43:00,
2013-01-28 04:48:00,26.5,24.5,29.92,SE,144,3.0,4.0,92,0.00,,,0.00,VWS V14.01,2013-01-28 09:48:00,
2013-01-28 04:53:00,26.5,24.5,29.92,SE,127,3.0,4.0,92,0.00,,,0.00,VWS V14.01,2013-01-28 09:53:00,
2013-01-28 04:59:00,26.6,24.6,29.92,SE,141,3.0,5.0,92,0.00,,,0.00,VWS V14.01,2013-01-28 09:59:00,
2013-01-28 05:04:00,26.6,24.6,29.91,SE,135,4.0,5.0,92,0.00,,,0.00,VWS V14.01,2013-01-28 10:04:00,
2013-01-28 05:09:00,26.6,24.6,29.91,SE,125,4.0,6.0,92,0.00,,,0.00,VWS V14.01,2013-01-28 10:09:00,
2013-01-28 05:14:00,26.6,24.6,29.92,SE,137,4.0,5.0,92,0.00,,,0.00,VWS V14.01,2013-01-28 10:14:00,
2013-01-28 05:19:00,26.6,24.6,29.92,SE,142,5.0,6.0,92,0.00,,,0.00,VWS V14.01,2013-01-28 10:19:00,
2013-01-28 05:24:00,26.6,24.6,29.91,ESE,123,3.0,3.0,92,0.00,,,0.00,VWS V14.01,2013-01-28 10:24:00,
2013-01-28 05:29:00,26.6,24.6,29.91,SSE,151,2.0,3.0,92,0.00,,,0.00,VWS V14.01,2013-01-28 10:29:00,
2013-01-28 05:34:00,26.7,24.7,29.91,ESE,119,3.0,5.0,92,0.00,,,0.00,VWS V14.01,2013-01-28 10:34:00,
2013-01-28 05:39:00,26.6,24.9,29.90,SE,132,4.0,7.0,93,0.00,,,0.00,VWS V14.01,2013-01-28 10:39:00,
2013-01-28 05:44:00,26.6,24.9,29.90,ESE,118,5.0,5.0,93,0.00,,,0.00,VWS V14.01,2013-01-28 10:44:00,
2013-01-28 05:49:00,26.7,25.0,29.90,SE,134,4.0,4.0,93,0.00,,,0.00,VWS V14.01,2013-01-28 10:49:00,
2013-01-28 05:54:00,26.6,24.9,29.89,SE,125,3.0,4.0,93,0.00,,,0.00,VWS V14.01,2013-01-28 10:54:00,
2013-01-28 05:59:00,26.6,24.9,29.89,SE,128,3.0,5.0,93,0.00,,,0.00,VWS V14.01,2013-01-28 10:59:00,
2013-01-28 06:04:00,26.7,25.0,29.89,ESE,123,7.0,7.0,93,0.00,,,0.00,VWS V14.01,2013-01-28 11:04:00,
2013-01-28 06:09:00,26.7,25.0,29.88,SE,129,4.0,6.0,93,0.00,,,0.00,VWS V14.01,2013-01-28 11:09:00,
2013-01-28 06:14:00,26.7,24.7,29.88,ESE,123,5.0,8.0,92,0.00,,,0.00,VWS V14.01,2013-01-28 11:14:00,
2013-01-28 06:19:00,26.8,24.8,29.87,SE,126,3.0,8.0,92,0.00,,,0.00,VWS V14.01,2013-01-28 11:19:00,
2013-01-28 06:24:00,26.8,24.8,29.87,SE,124,5.0,7.0,92,0.00,,,0.00,VWS V14.01,2013-01-28 11:24:00,
2013-01-28 06:29:00,26.8,24.8,29.87,SE,129,5.0,5.0,92,0.00,,,0.00,VWS V14.01,2013-01-28 11:29:00,
2013-01-28 06:34:00,26.8,25.0,29.87,SE,124,2.0,4.0,93,0.00,,,0.00,VWS V14.01,2013-01-28 11:34:00,
2013-01-28 06:39:00,26.9,25.1,29.87,SE,134,2.0,3.0,93,0.00,,,0.00,VWS V14.01,2013-01-28 11:39:00,
2013-01-28 06:44:00,27.0,25.0,29.87,SE,130,5.0,6.0,92,0.00,,,0.00,VWS V14.01,2013-01-28 11:44:00,
2013-01-28 06:49:00,27.0,25.0,29.87,SE,135,3.0,4.0,92,0.00,,,0.00,VWS V14.01,2013-01-28 11:49:00,
2013-01-28 06:54:00,27.1,25.1,29.87,ESE,123,3.0,4.0,92,0.00,,,0.00,VWS V14.01,2013-01-28 11:54:00,
2013-01-28 06:59:00,27.1,25.1,29.87,ESE,123,3.0,3.0,92,0.00,,,0.00,VWS V14.01,2013-01-28 11:59:00,
2013-01-28 07:04:00,27.1,25.1,29.86,SE,125,3.0,5.0,92,0.00,,,0.00,VWS V14.01,2013-01-28 12:04:00,
2013-01-28 07:09:00,27.2,25.2,29.86,SE,128,2.0,3.0,92,0.00,,,0.00,VWS V14.01,2013-01-28 12:09:00,
2013-01-28 07:14:00,27.2,25.5,29.86,SE,127,3.0,3.0,93,0.00,,,0.00,VWS V14.01,2013-01-28 12:14:00,
2013-01-28 07:19:00,27.2,25.5,29.87,SE,124,3.0,4.0,93,0.00,,,0.00,VWS V14.01,2013-01-28 12:19:00,
2013-01-28 07:24:00,27.3,25.5,29.87,SE,136,3.0,4.0,93,0.00,,,0.00,VWS V14.01,2013-01-28 12:24:00,
2013-01-28 07:29:00,27.3,25.5,29.86,SE,139,2.0,2.0,93,0.00,,,0.00,VWS V14.01,2013-01-28 12:29:00,
2013-01-28 07:34:00,27.3,25.5,29.87,SE,126,3.0,4.0,93,0.00,,OVC046,0.00,VWS V14.01,2013-01-28 12:34:00,
2013-01-28 07:39:00,27.4,25.6,29.86,SE,132,3.0,3.0,93,0.00,,OVC046,0.00,VWS V14.01,2013-01-28 12:39:00,
2013-01-28 07:44:00,27.4,25.6,29.86,SE,132,3.0,4.0,93,0.00,,OVC046,0.00,VWS V14.01,2013-01-28 12:44:00,
2013-01-28 07:49:00,27.4,25.6,29.86,ESE,119,3.0,3.0,93,0.00,,OVC046,0.00,VWS V14.01,2013-01-28 12:49:00,
2013-01-28 07:54:00,27.3,25.5,29.86,SE,130,0.0,2.0,93,0.00,,OVC046,0.00,VWS V14.01,2013-01-28 12:54:00,
2013-01-28 07:59:00,27.4,25.6,29.86,SE,125,2.0,3.0,93,0.00,,OVC046,0.00,VWS V14.01,2013-01-28 12:59:00,
2013-01-28 08:04:00,27.3,25.5,29.85,SE,128,2.0,3.0,93,0.00,,,0.00,VWS V14.01,2013-01-28 13:04:00,
2013-01-28 08:09:00,27.3,25.5,29.85,SE,127,2.0,3.0,93,0.00,,,0.00,VWS V14.01,2013-01-28 13:09:00,
2013-01-28 08:14:00,27.3,25.5,29.85,ESE,122,2.0,4.0,93,0.00,,,0.00,VWS V14.01,2013-01-28 13:14:00,
2013-01-28 08:19:00,27.4,25.6,29.85,ESE,123,3.0,3.0,93,0.00,,,0.00,VWS V14.01,2013-01-28 13:19:00,
2013-01-28 08:24:00,27.4,25.6,29.85,ESE,122,3.0,3.0,93,0.00,,,0.00,VWS V14.01,2013-01-28 13:24:00,
2013-01-28 08:29:00,27.4,25.6,29.85,ESE,119,2.0,5.0,93,0.00,,,0.00,VWS V14.01,2013-01-28 13:29:00,
2013-01-28 08:34:00,27.5,25.8,29.85,ESE,117,2.0,3.0,93,0.00,,,0.00,VWS V14.01,2013-01-28 13:34:00,
2013-01-28 08:39:00,27.5,25.8,29.85,SE,124,3.0,3.0,93,0.00,,,0.00,VWS V14.01,2013-01-28 13:39:00,
2013-01-28 08:44:00,27.5,25.8,29.85,ESE,119,3.0,3.0,93,0.00,,,0.00,VWS V14.01,2013-01-28 13:44:00,
2013-01-28 08:50:00,27.6,25.8,29.85,ESE,117,2.0,2.0,93,0.00,,,0.00,VWS V14.01,2013-01-28 13:50:00,
2013-01-28 08:54:00,27.6,25.8,29.85,ESE,122,1.0,4.0,93,0.00,,,0.00,VWS V14.01,2013-01-28 13:54:00,
2013-01-28 08:59:00,27.7,25.9,29.85,ESE,119,3.0,3.0,93,0.00,,,0.00,VWS V14.01,2013-01-28 13:59:00,
2013-01-28 09:04:00,27.7,25.9,29.84,SE,126,2.0,3.0,93,0.00,,,0.00,VWS V14.01,2013-01-28 14:04:00,
2013-01-28 09:10:00,27.7,25.9,29.84,ESE,119,2.0,3.0,93,0.00,,,0.00,VWS V14.01,2013-01-28 14:10:00,
2013-01-28 09:15:00,27.8,26.0,29.84,SE,128,2.0,2.0,93,0.00,,,0.00,VWS V14.01,2013-01-28 14:15:00,
2013-01-28 09:20:00,27.8,26.0,29.84,ESE,117,2.0,3.0,93,0.00,,,0.00,VWS V14.01,2013-01-28 14:20:00,
2013-01-28 09:25:00,27.9,26.1,29.84,ESE,123,3.0,4.0,93,0.00,,,0.00,VWS V14.01,2013-01-28 14:25:00,
2013-01-28 09:30:00,27.9,26.1,29.84,SE,124,2.0,7.0,93,0.00,,,0.00,VWS V14.01,2013-01-28 14:30:00,
2013-01-28 09:35:00,28.0,26.2,29.84,ESE,118,2.0,3.0,93,0.00,,,0.00,VWS V14.01,2013-01-28 14:35:00,
2013-01-28 09:40:00,28.1,26.3,29.84,ESE,123,3.0,4.0,93,0.00,,,0.00,VWS V14.01,2013-01-28 14:40:00,
2013-01-28 09:45:00,28.1,26.3,29.84,ESE,120,3.0,4.0,93,0.00,,,0.00,VWS V14.01,2013-01-28 14:45:00,
2013-01-28 09:50:00,28.2,26.4,29.84,ESE,119,2.0,3.0,93,0.00,,,0.00,VWS V14.01,2013-01-28 14:50:00,
2013-01-28 09:55:00,28.2,26.4,29.84,SE,126,2.0,3.0,93,0.00,,,0.00,VWS V14.01,2013-01-28 14:55:00,
2013-01-28 10:00:00,28.3,26.5,29.84,ESE,120,1.0,2.0,93,0.00,,,0.00,VWS V14.01,2013-01-28 15:00:00,
2013-01-28 10:05:00,28.4,26.6,29.84,SE,124,2.0,2.0,93,0.00,,,0.00,VWS V14.01,2013-01-28 15:05:00,
2013-01-28 10:10:00,28.5,26.7,29.84,SE,130,2.0,2.0,93,0.00,,,0.00,VWS V14.01,2013-01-28 15:10:00,
2013-01-28 10:15:00,28.6,26.8,29.84,SE,128,2.0,3.0,93,0.00,,,0.00,VWS V14.01,2013-01-28 15:15:00,
2013-01-28 10:20:00,28.7,26.7,29.84,SE,134,1.0,2.0,92,0.00,,,0.00,VWS V14.01,2013-01-28 15:20:00,
2013-01-28 10:25:00,28.7,26.7,29.84,SE,146,2.0,4.0,92,0.00,,,0.00,VWS V14.01,2013-01-28 15:25:00,
2013-01-28 10:30:00,28.8,26.8,29.84,SE,135,3.0,4.0,92,0.00,,,0.00,VWS V14.01,2013-01-28 15:30:00,
2013-01-28 10:35:00,28.9,26.9,29.84,ESE,119,3.0,4.0,92,0.00,,,0.00,VWS V14.01,2013-01-28 15:35:00,
2013-01-28 10:40:00,29.0,27.0,29.84,SE,128,3.0,3.0,92,0.00,,,0.00,VWS V14.01,2013-01-28 15:40:00,
2013-01-28 10:45:00,29.1,27.1,29.84,ESE,122,3.0,4.0,92,0.00,,,0.00,VWS V14.01,2013-01-28 15:45:00,
2013-01-28 10:50:00,29.1,27.1,29.84,SE,127,1.0,3.0,92,0.00,,,0.00,VWS V14.01,2013-01-28 15:50:00,
2013-01-28 10:55:00,29.2,26.9,29.85,SE,127,2.0,3.0,91,0.00,,,0.00,VWS V14.01,2013-01-28 15:55:00,
2013-01-28 11:00:00,29.3,27.0,29.84,ESE,108,4.0,4.0,91,0.00,,,0.00,VWS V14.01,2013-01-28 16:00:00,
2013-01-28 11:05:00,29.3,27.0,29.85,ESE,113,2.0,2.0,91,0.00,,,0.00,VWS V14.01,2013-01-28 16:05:00,
2013-01-28 11:10:00,29.4,27.1,29.85,ESE,112,2.0,3.0,91,0.00,,,0.00,VWS V14.01,2013-01-28 16:10:00,
2013-01-28 11:15:00,29.5,27.2,29.85,SE,128,2.0,2.0,91,0.00,,,0.00,VWS V14.01,2013-01-28 16:15:00,
2013-01-28 11:20:00,29.6,27.3,29.85,ESE,116,1.0,2.0,91,0.00,,,0.00,VWS V14.01,2013-01-28 16:20:00,
2013-01-28 11:25:00,29.7,27.4,29.85,ESE,117,1.0,1.0,91,0.00,,,0.00,VWS V14.01,2013-01-28 16:25:00,
2013-01-28 11:30:00,29.8,27.5,29.85,ESE,121,1.0,2.0,91,0.00,,,0.00,VWS V14.01,2013-01-28 16:30:00,
2013-01-28 11:35:00,30.0,27.7,29.85,SE,128,1.0,2.0,91,0.00,,,0.00,VWS V14.01,2013-01-28 16:35:00,
2013-01-28 11:40:00,30.1,27.8,29.85,SE,128,1.0,1.0,91,0.00,,,0.00,VWS V14.01,2013-01-28 16:40:00,
2013-01-28 11:45:00,30.1,27.5,29.85,SE,144,1.0,2.0,90,0.00,,,0.00,VWS V14.01,2013-01-28 16:45:00,
2013-01-28 11:50:00,30.2,27.6,29.86,SE,144,1.0,2.0,90,0.00,,,0.00,VWS V14.01,2013-01-28 16:50:00,
2013-01-28 11:55:00,30.3,27.7,29.85,SE,144,0.0,0.0,90,0.00,,,0.00,VWS V14.01,2013-01-28 16:55:00,
2013-01-28 12:00:00,30.3,27.7,29.85,SE,144,1.0,1.0,90,0.00,,,0.00,VWS V14.01,2013-01-28 17:00:00,
2013-01-28 12:05:00,30.5,27.9,29.85,SE,130,1.0,1.0,90,0.00,,OVC045,0.00,VWS V14.01,2013-01-28 17:05:00,
2013-01-28 12:10:00,30.6,28.0,29.85,SE,130,1.0,1.0,90,0.00,,OVC045,0.00,VWS V14.01,2013-01-28 17:10:00,
2013-01-28 12:15:00,30.7,28.1,29.85,NNE,21,2.0,3.0,90,0.00,,OVC045,0.00,VWS V14.01,2013-01-28 17:15:00,
2013-01-28 12:20:00,30.8,28.2,29.85,NE,34,2.0,2.0,90,0.00,,OVC045,0.00,VWS V14.01,2013-01-28 17:20:00,
2013-01-28 12:25:00,31.0,28.1,29.85,NNE,29,3.0,3.0,89,0.00,,OVC045,0.00,VWS V14.01,2013-01-28 17:25:00,
2013-01-28 12:30:00,31.0,28.1,29.85,NE,44,2.0,3.0,89,0.00,,OVC045,0.00,VWS V14.01,2013-01-28 17:30:00,
2013-01-28 12:35:00,31.2,28.6,29.85,NE,44,1.0,2.0,90,0.00,,OVC045,0.00,VWS V14.01,2013-01-28 17:35:00,
2013-01-28 12:40:00,31.4,28.5,29.85,NE,40,3.0,3.0,89,0.00,,OVC045,0.00,VWS V14.01,2013-01-28 17:40:00,
2013-01-28 12:45:00,31.5,28.9,29.85,NNE,18,2.0,3.0,90,0.00,,OVC045,0.00,VWS V14.01,2013-01-28 17:45:00,
2013-01-28 12:50:00,31.6,29.0,29.85,NE,51,3.0,4.0,90,0.00,,OVC045,0.00,VWS V14.01,2013-01-28 17:50:00,
2013-01-28 12:55:00,31.7,29.1,29.85,North,7,1.0,3.0,90,0.00,,OVC045,0.00,VWS V14.01,2013-01-28 17:55:00,
2013-01-28 13:00:00,31.6,29.0,29.85,NE,35,1.0,2.0,90,0.00,,OVC045,0.00,VWS V14.01,2013-01-28 18:00:00,
2013-01-28 13:05:00,31.5,28.9,29.85,NE,53,2.0,3.0,90,0.00,,OVC009,0.00,VWS V14.01,2013-01-28 18:05:00,
2013-01-28 13:10:00,31.7,29.1,29.85,North,7,1.0,2.0,90,0.00,,OVC009,0.00,VWS V14.01,2013-01-28 18:10:00,
2013-01-28 13:15:00,31.8,29.2,29.85,North,7,4.0,4.0,90,0.00,,OVC009,0.00,VWS V14.01,2013-01-28 18:15:00,
2013-01-28 13:20:00,31.6,29.0,29.85,NW,323,5.0,6.0,90,0.00,,OVC009,0.00,VWS V14.01,2013-01-28 18:20:00,
2013-01-28 13:25:00,31.6,29.3,29.85,NNE,12,3.0,4.0,91,0.00,,OVC009,0.00,VWS V14.01,2013-01-28 18:25:00,
2013-01-28 13:31:00,31.7,29.4,29.85,North,357,3.0,4.0,91,0.00,,OVC009,0.00,VWS V14.01,2013-01-28 18:31:00,
2013-01-28 13:36:00,31.8,29.5,29.85,NNW,342,2.0,3.0,91,0.00,,OVC009,0.00,VWS V14.01,2013-01-28 18:36:00,
2013-01-28 13:41:00,31.9,29.3,29.84,NNE,14,3.0,4.0,90,0.00,,OVC009,0.00,VWS V14.01,2013-01-28 18:41:00,
2013-01-28 13:46:00,32.0,29.4,29.84,NNW,348,1.0,3.0,90,0.00,,OVC009,0.00,VWS V14.01,2013-01-28 18:46:00,
2013-01-28 13:51:00,32.0,29.4,29.84,NNE,21,3.0,5.0,90,0.00,,OVC009,0.00,VWS V14.01,2013-01-28 18:51:00,
2013-01-28 13:56:00,32.1,29.2,29.84,NNE,24,3.0,5.0,89,0.00,,OVC009,0.00,VWS V14.01,2013-01-28 18:56:00,
2013-01-28 14:01:00,32.4,29.2,29.84,NNE,29,5.0,6.0,88,0.00,,OVC009,0.00,VWS V14.01,2013-01-28 19:01:00,
2013-01-28 14:06:00,32.5,29.6,29.84,North,2,2.0,2.0,89,0.01,,OVC009,0.01,VWS V14.01,2013-01-28 19:06:00,
2013-01-28 14:11:00,32.7,29.5,29.83,NNE,27,2.0,4.0,88,0.01,,OVC009,0.01,VWS V14.01,2013-01-28 19:11:00,
2013-01-28 14:16:00,32.9,29.7,29.84,NNE,15,2.0,4.0,88,0.01,,OVC009,0.01,VWS V14.01,2013-01-28 19:16:00,
2013-01-28 14:21:00,32.9,29.5,29.84,NNE,26,5.0,7.0,87,0.01,,OVC009,0.01,VWS V14.01,2013-01-28 19:21:00,
2013-01-28 14:26:00,33.0,29.6,29.84,NNW,336,4.0,6.0,87,0.01,,OVC009,0.01,VWS V14.01,2013-01-28 19:26:00,
2013-01-28 14:31:00,33.1,29.7,29.84,NW,325,5.0,7.0,87,0.01,,OVC009,0.01,VWS V14.01,2013-01-28 19:31:00,
2013-01-28 14:36:00,33.0,29.6,29.84,North,357,2.0,4.0,87,0.01,,OVC009,0.01,VWS V14.01,2013-01-28 19:36:00,
2013-01-28 14:41:00,32.9,29.7,29.84,NNW,331,2.0,5.0,88,0.01,,OVC009,0.01,VWS V14.01,2013-01-28 19:41:00,
2013-01-28 14:46:00,32.8,29.6,29.85,NNW,342,4.0,6.0,88,0.01,,OVC009,0.01,VWS V14.01,2013-01-28 19:46:00,
2013-01-28 14:51:00,32.5,29.6,29.85,North,7,5.0,6.0,89,0.01,,OVC009,0.01,VWS V14.01,2013-01-28 19:51:00,
2013-01-28 14:56:00,32.2,29.3,29.85,NNE,18,3.0,5.0,89,0.01,,OVC009,0.01,VWS V14.01,2013-01-28 19:56:00,
2013-01-28 15:01:00,32.0,29.4,29.86,NW,322,3.0,5.0,90,0.01,,OVC009,0.01,VWS V14.01,2013-01-28 20:01:00,
2013-01-28 15:06:00,31.9,29.3,29.86,NNE,17,6.0,7.0,90,0.01,,OVC009,0.01,VWS V14.01,2013-01-28 20:06:00,
2013-01-28 15:11:00,31.7,29.1,29.87,North,353,5.0,7.0,90,0.02,,OVC009,0.02,VWS V14.01,2013-01-28 20:11:00,
2013-01-28 15:16:00,31.5,28.9,29.87,NW,306,4.0,6.0,90,0.02,,OVC011,0.02,VWS V14.01,2013-01-28 20:16:00,
2013-01-28 15:21:00,31.4,29.1,29.88,NW,325,3.0,7.0,91,0.02,,OVC011,0.02,VWS V14.01,2013-01-28 20:21:00,
2013-01-28 15:26:00,31.4,29.1,29.88,NNW,331,3.0,4.0,91,0.02,,OVC011,0.02,VWS V14.01,2013-01-28 20:26:00,
2013-01-28 15:31:00,31.4,29.1,29.88,NNW,344,2.0,4.0,91,0.01,,OVC011,0.02,VWS V14.01,2013-01-28 20:31:00,
2013-01-28 15:36:00,31.5,29.2,29.88,NNW,334,3.0,4.0,91,0.01,,OVC011,0.02,VWS V14.01,2013-01-28 20:36:00,
2013-01-28 15:41:00,31.5,29.2,29.88,NW,307,1.0,3.0,91,0.01,,OVC011,0.02,VWS V14.01,2013-01-28 20:41:00,
2013-01-28 15:46:00,31.6,29.3,29.88,NW,321,5.0,5.0,91,0.01,,OVC011,0.02,VWS V14.01,2013-01-28 20:46:00,
2013-01-28 15:51:00,31.5,29.2,29.89,NNW,332,2.0,4.0,91,0.02,,OVC011,0.03,VWS V14.01,2013-01-28 20:51:00,
2013-01-28 15:56:00,31.4,29.1,29.89,NNW,342,6.0,7.0,91,0.02,,OVC011,0.03,VWS V14.01,2013-01-28 20:56:00,
2013-01-28 16:01:00,31.3,29.0,29.89,NNW,346,3.0,4.0,91,0.02,,OVC011,0.03,VWS V14.01,2013-01-28 21:01:00,
2013-01-28 16:06:00,31.2,28.9,29.89,North,7,5.0,6.0,91,0.02,,OVC011,0.03,VWS V14.01,2013-01-28 21:06:00,
2013-01-28 16:11:00,31.2,29.1,29.90,NNW,327,5.0,6.0,92,0.02,,OVC011,0.03,VWS V14.01,2013-01-28 21:11:00,
2013-01-28 16:16:00,31.2,28.9,29.90,NNW,329,1.0,3.0,91,0.02,,OVC011,0.03,VWS V14.01,2013-01-28 21:16:00,
2013-01-28 16:21:00,31.1,29.0,29.90,WNW,294,4.0,5.0,92,0.02,,OVC009,0.03,VWS V14.01,2013-01-28 21:21:00,
2013-01-28 16:26:00,31.0,29.0,29.91,NW,326,4.0,5.0,92,0.02,,OVC009,0.03,VWS V14.01,2013-01-28 21:26:00,
2013-01-28 16:31:00,31.0,29.0,29.91,NW,317,5.0,5.0,92,0.01,,OVC009,0.03,VWS V14.01,2013-01-28 21:31:00,
2013-01-28 16:36:00,31.0,29.2,29.91,NW,317,2.0,3.0,93,0.01,,OVC009,0.03,VWS V14.01,2013-01-28 21:36:00,
2013-01-28 16:41:00,31.0,29.2,29.92,NW,308,1.0,2.0,93,0.01,,OVC009,0.03,VWS V14.01,2013-01-28 21:41:00,
2013-01-28 16:46:00,31.0,29.2,29.92,NW,308,0.0,1.0,93,0.01,,OVC009,0.03,VWS V14.01,2013-01-28 21:46:00,
2013-01-28 16:52:00,30.9,29.1,29.92,NW,322,2.0,4.0,93,0.01,,OVC009,0.03,VWS V14.01,2013-01-28 21:52:00,
2013-01-28 16:57:00,30.9,29.1,29.93,WNW,294,1.0,2.0,93,0.01,,OVC009,0.03,VWS V14.01,2013-01-28 21:57:00,
2013-01-28 17:02:00,30.9,29.1,29.93,NNW,340,2.0,2.0,93,0.00,,OVC009,0.03,VWS V14.01,2013-01-28 22:02:00,
2013-01-28 17:07:00,30.8,29.0,29.92,NW,319,0.0,1.0,93,0.00,,OVC009,0.03,VWS V14.01,2013-01-28 22:07:00,
2013-01-28 17:12:00,30.8,29.0,29.93,NW,317,0.0,1.0,93,0.00,,OVC009,0.03,VWS V14.01,2013-01-28 22:12:00,
2013-01-28 17:17:00,30.9,29.1,29.93,NW,317,1.0,2.0,93,0.00,,OVC009,0.03,VWS V14.01,2013-01-28 22:17:00,
2013-01-28 17:22:00,31.0,29.2,29.94,NW,317,1.0,1.0,93,0.00,,OVC009,0.03,VWS V14.01,2013-01-28 22:22:00,
2013-01-28 17:27:00,31.0,29.0,29.94,NW,323,1.0,1.0,92,0.00,,OVC009,0.03,VWS V14.01,2013-01-28 22:27:00,
2013-01-28 17:32:00,31.1,29.0,29.94,NW,323,1.0,1.0,92,0.00,,OVC009,0.03,VWS V14.01,2013-01-28 22:32:00,
2013-01-28 17:37:00,31.1,29.0,29.94,NW,323,1.0,1.0,92,0.00,,OVC009,0.03,VWS V14.01,2013-01-28 22:37:00,
2013-01-28 17:42:00,31.0,29.2,29.95,NW,322,1.0,1.0,93,0.00,,OVC009,0.03,VWS V14.01,2013-01-28 22:42:00,
2013-01-28 17:47:00,31.1,29.0,29.95,NW,322,2.0,2.0,92,0.00,,OVC009,0.03,VWS V14.01,2013-01-28 22:47:00,
2013-01-28 17:52:00,31.1,29.0,29.95,NW,321,1.0,1.0,92,0.00,,OVC009,0.03,VWS V14.01,2013-01-28 22:52:00,
2013-01-28 17:57:00,31.0,29.2,29.95,NW,321,0.0,1.0,93,0.00,,OVC009,0.03,VWS V14.01,2013-01-28 22:57:00,
2013-01-28 18:02:00,31.0,29.0,29.95,NW,306,1.0,2.0,92,0.00,,OVC013,0.03,VWS V14.01,2013-01-28 23:02:00,
2013-01-28 18:07:00,31.0,29.0,29.96,NNE,17,1.0,1.0,92,0.00,,OVC013,0.03,VWS V14.01,2013-01-28 23:07:00,
2013-01-28 18:12:00,31.0,29.0,29.95,NNE,15,1.0,2.0,92,0.00,,OVC013,0.03,VWS V14.01,2013-01-28 23:12:00,
2013-01-28 18:17:00,31.1,29.0,29.95,NNE,15,1.0,1.0,92,0.00,,OVC013,0.03,VWS V14.01,2013-01-28 23:17:00,
2013-01-28 18:22:00,31.1,28.8,29.95,NNE,15,1.0,1.0,91,0.00,,OVC013,0.03,VWS V14.01,2013-01-28 23:22:00,
2013-01-28 18:27:00,31.1,28.8,29.95,NNE,15,0.0,1.0,91,0.00,,OVC013,0.03,VWS V14.01,2013-01-28 23:27:00,
2013-01-28 18:32:00,31.1,28.8,29.95,NNE,15,0.0,0.0,91,0.00,,OVC013,0.03,VWS V14.01,2013-01-28 23:32:00,
2013-01-28 18:37:00,31.0,28.7,29.95,NNE,15,0.0,0.0,91,0.00,,OVC013,0.03,VWS V14.01,2013-01-28 23:37:00,
2013-01-28 18:42:00,31.0,28.7,29.95,NNE,15,1.0,1.0,91,0.00,,OVC013,0.03,VWS V14.01,2013-01-28 23:42:00,
2013-01-28 18:47:00,31.0,29.0,29.95,NNE,14,1.0,1.0,92,0.00,,OVC013,0.03,VWS V14.01,2013-01-28 23:47:00,
2013-01-28 18:52:00,30.9,28.9,29.95,NNE,14,0.0,0.0,92,0.00,,OVC013,0.03,VWS V14.01,2013-01-28 23:52:00,
2013-01-28 18:57:00,30.9,28.9,29.95,NNE,14,0.0,0.0,92,0.00,,OVC013,0.03,VWS V14.01,2013-01-28 23:57:00,
2013-01-28 19:02:00,30.9,28.9,29.95,NNE,14,0.0,0.0,92,0.00,,OVC013,0.03,VWS V14.01,2013-01-29 00:02:00,
2013-01-28 19:07:00,30.8,28.8,29.96,NNE,14,1.0,1.0,92,0.00,,OVC013,0.03,VWS V14.01,2013-01-29 00:07:00,
2013-01-28 19:12:00,30.8,29.0,29.96,North,7,0.0,1.0,93,0.00,,OVC013,0.03,VWS V14.01,2013-01-29 00:12:00,
2013-01-28 19:17:00,30.7,28.9,29.96,North,7,0.0,1.0,93,0.00,,OVC013,0.03,VWS V14.01,2013-01-29 00:17:00,
2013-01-28 19:22:00,30.7,28.7,29.96,North,7,0.0,1.0,92,0.00,,OVC013,0.03,VWS V14.01,2013-01-29 00:22:00,
2013-01-28 19:27:00,30.7,28.9,29.97,North,7,0.0,0.0,93,0.00,,OVC013,0.03,VWS V14.01,2013-01-29 00:27:00,
2013-01-28 19:32:00,30.7,28.9,29.96,North,7,1.0,2.0,93,0.00,,OVC013,0.03,VWS V14.01,2013-01-29 00:32:00,
2013-01-28 19:37:00,30.7,28.9,29.96,North,7,1.0,1.0,93,0.00,,OVC013,0.03,VWS V14.01,2013-01-29 00:37:00,
2013-01-28 19:42:00,30.6,28.8,29.97,North,7,0.0,1.0,93,0.00,,OVC013,0.03,VWS V14.01,2013-01-29 00:42:00,
2013-01-28 19:47:00,30.6,28.8,29.97,NNW,341,0.0,1.0,93,0.00,,OVC013,0.03,VWS V14.01,2013-01-29 00:47:00,
2013-01-28 19:52:00,30.6,28.8,29.98,WNW,288,3.0,3.0,93,0.00,,OVC013,0.03,VWS V14.01,2013-01-29 00:52:00,
2013-01-28 19:57:00,30.5,28.7,29.98,West,280,2.0,3.0,93,0.00,,OVC013,0.03,VWS V14.01,2013-01-29 00:57:00,
2013-01-28 20:02:00,30.6,28.8,29.98,West,273,1.0,3.0,93,0.00,,OVC013,0.03,VWS V14.01,2013-01-29 01:02:00,
2013-01-28 20:07:00,30.6,28.8,29.98,West,273,1.0,2.0,93,0.00,,OVC013,0.03,VWS V14.01,2013-01-29 01:07:00,
2013-01-28 20:13:00,30.5,28.5,29.98,West,273,1.0,1.0,92,0.00,,OVC013,0.03,VWS V14.01,2013-01-29 01:13:00,
2013-01-28 20:18:00,30.5,28.7,29.99,West,273,0.0,1.0,93,0.00,,OVC013,0.03,VWS V14.01,2013-01-29 01:18:00,
2013-01-28 20:23:00,30.5,28.7,29.99,West,273,0.0,1.0,93,0.00,,OVC013,0.03,VWS V14.01,2013-01-29 01:23:00,
2013-01-28 20:28:00,30.5,28.7,29.99,West,273,1.0,1.0,93,0.00,,OVC013,0.03,VWS V14.01,2013-01-29 01:28:00,
2013-01-28 20:33:00,30.5,28.7,29.99,West,273,0.0,0.0,93,0.00,,OVC013,0.03,VWS V14.01,2013-01-29 01:33:00,
2013-01-28 20:38:00,30.4,28.6,29.99,West,273,0.0,1.0,93,0.00,,OVC013,0.03,VWS V14.01,2013-01-29 01:38:00,
2013-01-28 20:43:00,30.4,28.6,29.99,West,273,0.0,1.0,93,0.00,,OVC013,0.03,VWS V14.01,2013-01-29 01:43:00,
2013-01-28 20:48:00,30.4,28.6,30.00,West,273,0.0,0.0,93,0.00,,OVC013,0.03,VWS V14.01,2013-01-29 01:48:00,
2013-01-28 20:53:00,30.3,28.5,29.99,West,273,0.0,0.0,93,0.00,,OVC013,0.03,VWS V14.01,2013-01-29 01:53:00,
2013-01-28 20:58:00,30.3,28.5,29.99,West,273,0.0,0.0,93,0.00,,OVC013,0.03,VWS V14.01,2013-01-29 01:58:00,
2013-01-28 21:03:00,30.3,28.3,29.99,West,273,1.0,1.0,92,0.00,,OVC015,0.03,VWS V14.01,2013-01-29 02:03:00,
2013-01-28 21:08:00,30.3,28.3,29.99,West,273,0.0,0.0,92,0.00,,OVC015,0.03,VWS V14.01,2013-01-29 02:08:00,
2013-01-28 21:13:00,30.3,28.3,29.99,West,273,0.0,0.0,92,0.00,,OVC015,0.03,VWS V14.01,2013-01-29 02:13:00,
2013-01-28 21:18:00,30.3,28.3,29.99,West,273,1.0,1.0,92,0.00,,OVC015,0.03,VWS V14.01,2013-01-29 02:18:00,
2013-01-28 21:23:00,30.3,28.3,29.99,West,273,1.0,1.0,92,0.00,,OVC015,0.03,VWS V14.01,2013-01-29 02:23:00,
2013-01-28 21:28:00,30.4,28.4,29.99,West,273,0.0,1.0,92,0.00,,OVC015,0.03,VWS V14.01,2013-01-29 02:28:00,
2013-01-28 21:33:00,30.3,28.3,29.99,West,273,0.0,1.0,92,0.00,,OVC015,0.03,VWS V14.01,2013-01-29 02:33:00,
2013-01-28 21:38:00,30.3,28.3,29.99,West,273,1.0,2.0,92,0.00,,OVC015,0.03,VWS V14.01,2013-01-29 02:38:00,
2013-01-28 21:43:00,30.3,28.5,29.99,South,185,1.0,1.0,93,0.00,,OVC015,0.03,VWS V14.01,2013-01-29 02:43:00,
2013-01-28 21:48:00,30.3,28.5,29.99,South,185,1.0,1.0,93,0.00,,OVC015,0.03,VWS V14.01,2013-01-29 02:48:00,
2013-01-28 21:53:00,30.1,28.3,29.99,SE,133,1.0,2.0,93,0.00,,OVC015,0.03,VWS V14.01,2013-01-29 02:53:00,
2013-01-28 21:58:00,30.1,28.3,29.99,SE,132,1.0,1.0,93,0.00,,OVC015,0.03,VWS V14.01,2013-01-29 02:58:00,
2013-01-28 22:03:00,30.1,28.3,29.99,SE,132,0.0,1.0,93,0.00,,OVC015,0.03,VWS V14.01,2013-01-29 03:03:00,
2013-01-28 22:08:00,30.1,28.3,29.99,SE,132,0.0,0.0,93,0.00,,OVC015,0.03,VWS V14.01,2013-01-29 03:08:00,
2013-01-28 22:13:00,30.1,28.3,29.99,SE,133,1.0,1.0,93,0.00,,OVC015,0.03,VWS V14.01,2013-01-29 03:13:00,
2013-01-28 22:18:00,30.1,28.3,29.99,SE,133,1.0,1.0,93,0.00,,OVC015,0.03,VWS V14.01,2013-01-29 03:18:00,
2013-01-28 22:23:00,30.1,28.3,29.99,SE,132,1.0,1.0,93,0.00,,OVC015,0.03,VWS V14.01,2013-01-29 03:23:00,
2013-01-28 22:28:00,30.1,28.3,29.99,SE,133,0.0,1.0,93,0.00,,OVC015,0.03,VWS V14.01,2013-01-29 03:28:00,
2013-01-28 22:33:00,30.1,28.3,29.99,SE,137,1.0,1.0,93,0.00,,OVC015,0.03,VWS V14.01,2013-01-29 03:33:00,
2013-01-28 22:38:00,30.1,28.3,29.99,SE,130,1.0,2.0,93,0.00,,OVC015,0.03,VWS V14.01,2013-01-29 03:38:00,
2013-01-28 22:43:00,30.1,28.3,29.99,SE,130,2.0,2.0,93,0.00,,OVC015,0.03,VWS V14.01,2013-01-29 03:43:00,
2013-01-28 22:48:00,30.2,28.4,29.98,SE,130,0.0,1.0,93,0.00,,OVC015,0.03,VWS V14.01,2013-01-29 03:48:00,
2013-01-28 22:53:00,30.1,28.3,29.99,SE,130,1.0,1.0,93,0.00,,OVC015,0.03,VWS V14.01,2013-01-29 03:53:00,
2013-01-28 22:58:00,30.2,28.4,29.99,SSE,148,1.0,2.0,93,0.00,,OVC015,0.03,VWS V14.01,2013-01-29 03:58:00,
2013-01-28 23:03:00,30.2,28.4,29.99,SE,129,2.0,3.0,93,0.00,,OVC015,0.03,VWS V14.01,2013-01-29 04:03:00,
2013-01-28 23:08:00,30.3,28.3,29.99,ESE,116,2.0,3.0,92,0.00,,OVC015,0.03,VWS V14.01,2013-01-29 04:08:00,
2013-01-28 23:13:00,30.3,28.3,29.98,SE,132,1.0,1.0,92,0.00,,OVC015,0.03,VWS V14.01,2013-01-29 04:13:00,
2013-01-28 23:18:00,30.3,28.3,29.99,SE,130,1.0,1.0,92,0.00,,OVC015,0.03,VWS V14.01,2013-01-29 04:18:00,
2013-01-28 23:24:00,30.4,28.4,29.99,South,172,0.0,1.0,92,0.00,,OVC015,0.03,VWS V14.01,2013-01-29 04:24:00,
2013-01-28 23:29:00,30.3,28.3,29.99,South,188,1.0,3.0,92,0.00,,OVC015,0.03,VWS V14.01,2013-01-29 04:29:00,
2013-01-28 23:34:00,30.3,28.3,29.99,South,190,1.0,2.0,92,0.00,,OVC015,0.03,VWS V14.01,2013-01-29 04:34:00,
2013-01-28 23:39:00,30.3,28.3,29.99,South,190,1.0,2.0,92,0.00,,OVC015,0.03,VWS V14.01,2013-01-29 04:39:00,
2013-01-28 23:44:00,30.3,28.3,29.99,SSW,208,1.0,2.0,92,0.00,,OVC015,0.03,VWS V14.01,2013-01-29 04:44:00,
2013-01-28 23:49:00,30.3,28.3,29.99,SSW,208,0.0,1.0,92,0.00,,OVC015,0.03,VWS V14.01,2013-01-29 04:49:00,
2013-01-28 23:54:00,30.3,28.3,29.99,SSW,208,0.0,1.0,92,0.00,,OVC015,0.03,VWS V14.01,2013-01-29 04:54:00,
2013-01-28 23:59:00,30.3,28.3,29.99,SSW,208,1.0,1.0,92,0.00,,OVC015,0.03,VWS V14.01,2013-01-29 04:59:00,